createdAt,value
2019-05-06T00:00:56.520Z,7.10
2019-05-06T00:03:19.971Z,7.80
2019-05-06T00:05:50.121Z,7.83
2019-05-06T00:08:20.292Z,8.33
2019-05-06T00:10:50.464Z,7.90
2019-05-06T00:13:20.635Z,8.30
2019-05-06T00:15:50.792Z,7.63
2019-05-06T00:18:20.949Z,6.90
2019-05-06T00:20:51.119Z,8.53
2019-05-06T00:23:26.342Z,8.60
2019-05-06T00:26:25.660Z,8.53
2019-05-06T00:28:58.871Z,7.60
2019-05-06T00:31:29.095Z,8.20
2019-05-06T00:33:59.428Z,8.67
2019-05-06T00:36:29.611Z,8.03
2019-05-06T00:39:05.850Z,7.70
2019-05-06T00:41:36.657Z,8.07
2019-05-06T00:44:08.707Z,9.67
2019-05-06T00:46:38.875Z,8.50
2019-05-06T00:49:12.054Z,8.60
2019-05-06T00:51:43.979Z,7.43
2019-05-06T00:54:18.511Z,8.80
2019-05-06T00:56:48.692Z,8.97
2019-05-06T00:59:18.887Z,8.50
2019-05-06T01:01:49.057Z,8.30
2019-05-06T01:04:19.297Z,8.30
2019-05-06T01:06:49.439Z,9.20
2019-05-06T01:09:21.190Z,9.77
2019-05-06T01:11:54.158Z,10.30
2019-05-06T01:14:30.464Z,8.87
2019-05-06T01:17:00.621Z,9.67
2019-05-06T01:19:30.779Z,9.67
2019-05-06T01:22:00.956Z,9.20
2019-05-06T01:24:31.103Z,9.30
2019-05-06T01:27:01.276Z,10.50
2019-05-06T01:29:31.440Z,9.57
2019-05-06T01:32:03.556Z,9.47
2019-05-06T01:34:34.114Z,11.30
2019-05-06T01:37:04.720Z,10.40
2019-05-06T01:39:56.847Z,10.23
2019-05-06T01:42:37.719Z,11.17
2019-05-06T01:45:11.160Z,10.37
2019-05-06T01:47:43.849Z,10.00
2019-05-06T01:50:14.128Z,10.07
2019-05-06T01:52:44.355Z,10.60
2019-05-06T01:55:14.879Z,10.37
2019-05-06T01:57:45.021Z,9.60
2019-05-06T02:00:15.611Z,10.90
2019-05-06T02:02:45.783Z,10.40
2019-05-06T02:05:16.242Z,10.20
2019-05-06T02:07:46.484Z,10.07
2019-05-06T02:10:18.120Z,10.07
2019-05-06T02:12:48.303Z,10.40
2019-05-06T02:15:18.580Z,9.57
2019-05-06T02:17:48.743Z,10.37
2019-05-06T02:20:18.921Z,10.23
2019-05-06T02:23:04.932Z,11.17
2019-05-06T02:25:39.759Z,9.90
2019-05-06T02:28:14.302Z,11.23
2019-05-06T02:30:54.511Z,11.87
2019-05-06T02:33:51.941Z,10.23
2019-05-06T02:36:56.440Z,10.37
2019-05-06T02:39:26.601Z,10.40
2019-05-06T02:41:56.769Z,10.47
2019-05-06T02:44:26.912Z,12.13
2019-05-06T02:47:05.553Z,11.07
2019-05-06T02:49:54.661Z,10.90
2019-05-06T02:52:24.821Z,11.27
2019-05-06T02:54:54.993Z,10.70
2019-05-06T02:57:25.212Z,10.50
2019-05-06T02:59:55.861Z,10.93
2019-05-06T03:02:38.013Z,12.50
2019-05-06T03:04:58.096Z,10.83
2019-05-06T03:07:32.632Z,12.13
2019-05-06T03:10:00.129Z,12.10
2019-05-06T03:12:33.013Z,11.17
2019-05-06T03:15:03.359Z,10.67
2019-05-06T03:17:33.856Z,10.93
2019-05-06T03:20:06.138Z,10.53
2019-05-06T03:23:03.734Z,11.07
2019-05-06T03:25:37.764Z,10.43
2019-05-06T03:28:07.915Z,10.40
2019-05-06T03:30:38.120Z,10.73
2019-05-06T03:33:38.410Z,11.07
2019-05-06T03:35:56.510Z,9.40
2019-05-06T03:38:13.708Z,10.47
2019-05-06T03:40:45.836Z,11.30
2019-05-06T03:43:16.529Z,9.73
2019-05-06T03:46:04.546Z,10.87
2019-05-06T03:48:37.748Z,10.53
2019-05-06T03:51:07.918Z,9.90
2019-05-06T03:53:38.068Z,10.00
2019-05-06T03:56:08.231Z,10.23
2019-05-06T03:58:38.456Z,10.57
2019-05-06T04:01:08.936Z,10.83
2019-05-06T04:03:46.857Z,10.03
2019-05-06T04:06:13.576Z,10.80
2019-05-06T04:08:43.850Z,9.93
2019-05-06T04:11:17.845Z,11.10
2019-05-06T04:13:49.267Z,10.33
2019-05-06T04:16:44.305Z,9.93
2019-05-06T04:19:19.011Z,9.93
2019-05-06T04:21:55.199Z,10.70
2019-05-06T04:24:56.407Z,11.03
2019-05-06T04:27:53.683Z,9.80
2019-05-06T04:30:25.386Z,10.00
2019-05-06T04:32:57.330Z,11.63
2019-05-06T04:35:27.672Z,10.50
2019-05-06T04:37:57.839Z,11.00
2019-05-06T04:40:32.961Z,10.70
2019-05-06T04:43:03.556Z,11.00
2019-05-06T04:45:34.010Z,11.17
2019-05-06T04:48:04.177Z,11.97
2019-05-06T04:50:56.220Z,10.63
2019-05-06T04:53:33.698Z,10.87
2019-05-06T04:56:04.054Z,11.40
2019-05-06T04:58:35.862Z,11.60
2019-05-06T05:01:06.042Z,11.70
2019-05-06T05:03:36.215Z,11.50
2019-05-06T05:06:07.460Z,11.83
2019-05-06T05:08:37.635Z,11.30
2019-05-06T05:11:33.676Z,12.00
2019-05-06T05:14:13.510Z,11.80
2019-05-06T05:16:49.673Z,11.80
2019-05-06T05:19:20.053Z,12.17
2019-05-06T05:21:52.194Z,11.43
2019-05-06T05:24:23.754Z,12.40
2019-05-06T05:26:54.082Z,10.80
2019-05-06T05:29:24.261Z,12.17
2019-05-06T05:31:54.429Z,10.70
2019-05-06T05:34:37.224Z,11.50
2019-05-06T05:36:56.459Z,11.70
2019-05-06T05:39:26.643Z,11.83
2019-05-06T05:42:00.237Z,11.13
2019-05-06T05:44:33.281Z,12.33
2019-05-06T05:47:03.576Z,11.70
2019-05-06T05:49:56.845Z,11.37
2019-05-06T05:52:27.623Z,11.03
2019-05-06T05:54:57.809Z,11.43
2019-05-06T05:57:28.083Z,11.73
2019-05-06T05:59:58.268Z,12.70
2019-05-06T06:02:33.105Z,10.97
2019-05-06T06:05:03.002Z,12.27
2019-05-06T06:07:33.596Z,12.43
2019-05-06T06:10:12.918Z,14.00
2019-05-06T06:12:43.528Z,12.50
2019-05-06T06:15:25.748Z,11.70
2019-05-06T06:18:24.282Z,12.50
2019-05-06T06:21:21.969Z,11.40
2019-05-06T06:23:49.565Z,12.10
2019-05-06T06:26:19.800Z,13.87
2019-05-06T06:28:52.135Z,12.73
2019-05-06T06:31:37.420Z,11.00
2019-05-06T06:34:16.596Z,10.90
2019-05-06T06:36:53.227Z,11.10
2019-05-06T06:39:28.280Z,11.50
2019-05-06T06:41:58.471Z,12.00
2019-05-06T06:44:33.140Z,11.10
2019-05-06T06:47:04.534Z,10.57
2019-05-06T06:49:34.779Z,12.07
2019-05-06T06:52:10.726Z,11.20
2019-05-06T06:54:37.035Z,11.30
2019-05-06T06:57:18.267Z,11.23
2019-05-06T06:59:52.592Z,11.23
2019-05-06T07:02:38.224Z,11.50
2019-05-06T07:05:28.597Z,10.83
2019-05-06T07:07:58.716Z,11.43
2019-05-06T07:10:56.907Z,11.30
2019-05-06T07:13:27.051Z,11.57
2019-05-06T07:15:57.306Z,11.60
2019-05-06T07:18:28.660Z,10.23
2019-05-06T07:21:14.085Z,11.43
2019-05-06T07:23:44.312Z,9.30
2019-05-06T07:26:16.188Z,10.33
2019-05-06T07:28:46.360Z,9.67
2019-05-06T07:31:23.846Z,9.50
2019-05-06T07:33:52.604Z,9.07
2019-05-06T07:36:22.931Z,9.07
2019-05-06T07:38:54.130Z,8.80
2019-05-06T07:41:36.762Z,8.70
2019-05-06T07:44:22.509Z,8.70
2019-05-06T07:47:03.549Z,6.67
2019-05-06T07:49:33.064Z,6.00
2019-05-06T07:52:03.631Z,7.77
2019-05-06T07:54:33.755Z,6.70
2019-05-06T07:57:04.989Z,8.20
2019-05-06T07:59:35.163Z,7.50
2019-05-06T08:02:05.307Z,9.60
2019-05-06T08:04:35.500Z,8.07
2019-05-06T08:07:05.657Z,6.93
2019-05-06T08:09:37.590Z,6.67
2019-05-06T08:12:07.753Z,6.73
2019-05-06T08:14:44.199Z,6.43
2019-05-06T08:17:34.423Z,6.90
2019-05-06T08:20:05.860Z,7.00
2019-05-06T08:22:52.586Z,6.87
2019-05-06T08:25:23.039Z,7.03
2019-05-06T08:27:53.431Z,7.30
2019-05-06T08:30:23.723Z,7.57
2019-05-06T08:32:53.935Z,7.27
2019-05-06T08:35:24.089Z,7.00
2019-05-06T08:37:54.443Z,9.67
2019-05-06T08:40:26.504Z,8.40
2019-05-06T08:42:56.484Z,8.13
2019-05-06T08:45:26.642Z,8.80
2019-05-06T08:47:56.996Z,9.70
2019-05-06T08:50:55.909Z,9.27
2019-05-06T08:53:49.058Z,9.50
2019-05-06T08:56:22.045Z,9.80
2019-05-06T08:58:53.314Z,9.50
2019-05-06T09:01:32.524Z,10.37
2019-05-06T09:04:11.354Z,8.93
2019-05-06T09:06:35.365Z,10.40
2019-05-06T09:09:08.217Z,9.80
2019-05-06T09:11:38.853Z,9.30
2019-05-06T09:14:10.054Z,11.37
2019-05-06T09:16:44.363Z,10.73
2019-05-06T09:19:15.824Z,10.83
2019-05-06T09:21:46.575Z,11.10
2019-05-06T09:24:16.924Z,11.40
2019-05-06T09:26:54.922Z,11.70
2019-05-06T09:29:49.296Z,10.27
2019-05-06T09:32:25.850Z,12.03
2019-05-06T09:34:58.134Z,10.60
2019-05-06T09:37:28.279Z,13.37
2019-05-06T09:39:58.464Z,14.57
2019-05-06T09:42:28.615Z,14.17
2019-05-06T09:44:58.799Z,12.83
2019-05-06T09:47:42.246Z,13.80
2019-05-06T09:50:14.716Z,10.87
2019-05-06T09:52:44.857Z,11.90
2019-05-06T09:55:34.811Z,9.30
2019-05-06T09:58:06.861Z,10.90
2019-05-06T10:00:42.918Z,11.50
2019-05-06T10:03:13.608Z,10.40
2019-05-06T10:05:44.084Z,9.20
2019-05-06T10:08:14.844Z,9.20
2019-05-06T10:10:56.221Z,8.53
2019-05-06T10:13:16.863Z,9.17
2019-05-06T10:15:47.087Z,8.70
2019-05-06T10:18:17.321Z,8.47
2019-05-06T10:20:47.954Z,7.93
2019-05-06T10:23:18.204Z,8.00
2019-05-06T10:25:48.344Z,7.77
2019-05-06T10:28:44.416Z,6.73
2019-05-06T10:31:16.414Z,6.27
2019-05-06T10:34:04.157Z,6.27
2019-05-06T10:36:53.184Z,5.63
2019-05-06T10:39:25.783Z,6.07
2019-05-06T10:42:17.305Z,6.50
2019-05-06T10:45:17.289Z,5.83
2019-05-06T10:47:47.444Z,4.57
2019-05-06T10:50:17.611Z,5.80
2019-05-06T10:53:06.735Z,5.97
2019-05-06T10:55:38.051Z,5.83
2019-05-06T10:58:09.708Z,5.77
2019-05-06T11:00:42.321Z,5.57
2019-05-06T11:03:15.961Z,5.97
2019-05-06T11:05:46.245Z,5.90
2019-05-06T11:08:16.379Z,5.37
2019-05-06T11:10:46.542Z,6.00
2019-05-06T11:13:16.911Z,6.60
2019-05-06T11:15:47.108Z,6.53
2019-05-06T11:18:17.306Z,7.07
2019-05-06T11:20:48.556Z,6.40
2019-05-06T11:23:18.815Z,7.20
2019-05-06T11:25:48.985Z,6.90
2019-05-06T11:28:36.738Z,7.13
2019-05-06T11:31:28.983Z,5.70
2019-05-06T11:34:18.227Z,5.53
2019-05-06T11:37:12.050Z,5.27
2019-05-06T11:39:43.135Z,5.00
2019-05-06T11:42:27.458Z,5.90
2019-05-06T11:44:45.305Z,5.67
2019-05-06T11:47:17.058Z,5.50
2019-05-06T11:49:49.008Z,5.63
2019-05-06T11:52:19.166Z,7.10
2019-05-06T11:54:49.392Z,6.37
2019-05-06T11:57:19.640Z,6.00
2019-05-06T11:59:49.828Z,6.70
2019-05-06T12:02:23.078Z,7.00
2019-05-06T12:04:53.273Z,6.07
2019-05-06T12:07:24.457Z,6.63
2019-05-06T12:09:55.171Z,5.93
2019-05-06T12:12:25.331Z,6.50
2019-05-06T12:14:55.488Z,5.80
2019-05-06T12:17:25.752Z,6.30
2019-05-06T12:19:55.900Z,6.83
2019-05-06T12:22:36.687Z,6.40
2019-05-06T12:25:11.769Z,6.40
2019-05-06T12:27:44.980Z,7.80
2019-05-06T12:30:17.913Z,7.53
2019-05-06T12:32:56.455Z,6.80
2019-05-06T12:35:26.595Z,7.30
2019-05-06T12:37:58.328Z,8.27
2019-05-06T12:40:28.527Z,6.70
2019-05-06T12:43:17.623Z,8.17
2019-05-06T12:45:49.843Z,8.17
2019-05-06T12:48:33.190Z,7.57
2019-05-06T12:51:03.575Z,8.93
2019-05-06T12:53:33.797Z,9.27
2019-05-06T12:56:03.963Z,8.73
2019-05-06T12:58:34.131Z,7.80
2019-05-06T13:01:05.577Z,9.00
2019-05-06T13:03:35.759Z,8.10
2019-05-06T13:06:08.466Z,9.40
2019-05-06T13:08:53.920Z,8.27
2019-05-06T13:11:09.729Z,8.10
2019-05-06T13:13:53.956Z,7.77
2019-05-06T13:16:12.540Z,8.60
2019-05-06T13:18:47.725Z,8.47
2019-05-06T13:21:14.907Z,8.80
2019-05-06T13:23:49.350Z,9.20
2019-05-06T13:26:19.493Z,7.93
2019-05-06T13:28:54.051Z,10.13
2019-05-06T13:32:57.012Z,9.57
2019-05-06T13:34:03.861Z,9.20
2019-05-06T13:36:34.248Z,8.83
2019-05-06T13:39:13.698Z,10.20
2019-05-06T13:41:38.391Z,9.13
2019-05-06T13:44:13.441Z,9.20
2019-05-06T13:46:48.900Z,8.07
2019-05-06T13:49:43.415Z,9.43
2019-05-06T13:52:15.177Z,8.23
2019-05-06T13:54:45.345Z,8.10
2019-05-06T13:57:15.687Z,8.87
2019-05-06T13:59:45.905Z,9.37
2019-05-06T14:02:44.543Z,8.47
2019-05-06T14:05:15.099Z,8.67
2019-05-06T14:07:45.796Z,8.83
2019-05-06T14:10:16.506Z,9.13
2019-05-06T14:12:46.775Z,8.90
2019-05-06T14:15:18.557Z,8.70
2019-05-06T14:17:48.796Z,9.20
2019-05-06T14:20:18.964Z,9.20
2019-05-06T14:22:49.163Z,9.50
2019-05-06T14:25:43.190Z,9.10
2019-05-06T14:28:43.000Z,10.23
2019-05-06T14:31:18.856Z,10.30
2019-05-06T14:33:52.203Z,10.33
2019-05-06T14:36:22.900Z,10.40
2019-05-06T14:38:53.466Z,10.20
2019-05-06T14:41:27.324Z,11.50
2019-05-06T14:43:57.510Z,11.63
2019-05-06T14:46:33.128Z,13.23
2019-05-06T14:49:04.357Z,13.90
2019-05-06T14:51:34.728Z,15.40
2019-05-06T14:54:04.905Z,14.47
2019-05-06T14:56:45.960Z,13.37
2019-05-06T14:59:16.143Z,10.80
2019-05-06T15:01:46.384Z,10.73
2019-05-06T15:04:16.544Z,7.60
2019-05-06T15:06:46.723Z,6.23
2019-05-06T15:09:16.920Z,7.90
2019-05-06T15:11:47.083Z,7.77
2019-05-06T15:14:17.324Z,8.40
2019-05-06T15:16:47.458Z,8.10
2019-05-06T15:19:17.644Z,9.20
2019-05-06T15:21:47.838Z,8.83
2019-05-06T15:24:21.067Z,8.83
2019-05-06T15:26:52.003Z,8.97
2019-05-06T15:29:23.696Z,9.93
2019-05-06T15:32:32.114Z,9.57
2019-05-06T15:35:12.808Z,8.97
2019-05-06T15:37:49.609Z,8.17
2019-05-06T15:40:31.930Z,8.80
2019-05-06T15:42:53.361Z,8.97
2019-05-06T15:45:23.797Z,7.77
2019-05-06T15:47:53.991Z,8.37
2019-05-06T15:50:24.193Z,8.43
2019-05-06T15:52:55.500Z,8.67
2019-05-06T15:55:25.721Z,9.00
2019-05-06T15:57:55.905Z,8.93
2019-05-06T16:00:26.518Z,8.17
2019-05-06T16:02:56.876Z,7.83
2019-05-06T16:05:27.063Z,7.80
2019-05-06T16:08:02.702Z,8.57
2019-05-06T16:10:51.226Z,8.57
2019-05-06T16:13:06.476Z,8.57
2019-05-06T16:15:36.666Z,9.13
2019-05-06T16:18:06.858Z,10.27
2019-05-06T16:20:37.051Z,9.77
2019-05-06T16:23:29.032Z,9.90
2019-05-06T16:25:59.244Z,10.30
2019-05-06T16:28:29.397Z,10.63
2019-05-06T16:30:59.557Z,11.17
2019-05-06T16:33:29.734Z,10.03
2019-05-06T16:35:59.962Z,9.40
2019-05-06T16:38:32.146Z,9.70
2019-05-06T16:41:10.472Z,10.40
2019-05-06T16:43:34.395Z,10.13
2019-05-06T16:46:04.787Z,10.57
2019-05-06T16:48:34.940Z,10.47
2019-05-06T16:51:05.347Z,11.60
2019-05-06T16:53:35.555Z,11.80
2019-05-06T16:56:34.588Z,11.67
2019-05-06T16:59:05.108Z,11.23
2019-05-06T17:01:36.869Z,11.50
2019-05-06T17:04:14.636Z,10.70
2019-05-06T17:06:46.424Z,11.77
2019-05-06T17:09:21.224Z,12.93
2019-05-06T17:11:48.540Z,12.37
2019-05-06T17:14:18.691Z,12.90
2019-05-06T17:16:48.843Z,13.00
2019-05-06T17:19:19.025Z,12.10
2019-05-06T17:21:49.348Z,14.53
2019-05-06T17:24:21.888Z,12.40
2019-05-06T17:26:56.110Z,13.90
2019-05-06T17:30:01.537Z,13.30
2019-05-06T17:32:35.015Z,13.77
2019-05-06T17:35:07.601Z,14.83
2019-05-06T17:38:06.137Z,14.97
2019-05-06T17:40:39.505Z,16.30
2019-05-06T17:43:09.702Z,14.80
2019-05-06T17:46:01.353Z,15.80
2019-05-06T17:48:49.282Z,17.83
2019-05-06T17:51:53.644Z,16.87
2019-05-06T17:54:25.831Z,13.27
2019-05-06T17:56:55.894Z,14.40
2019-05-06T17:59:26.162Z,16.20
2019-05-06T18:01:58.412Z,19.07
2019-05-06T18:04:28.615Z,14.00
2019-05-06T18:06:58.880Z,28.93
2019-05-06T18:09:29.135Z,13.63
2019-05-06T18:11:59.932Z,22.20
2019-05-06T18:14:33.174Z,21.37
2019-05-06T18:17:05.723Z,14.50
2019-05-06T18:19:36.010Z,15.13
2019-05-06T18:22:07.398Z,14.27
2019-05-06T18:24:37.739Z,14.63
2019-05-06T18:27:09.212Z,16.50
2019-05-06T18:29:39.508Z,15.07
2019-05-06T18:32:09.823Z,14.40
2019-05-06T18:34:40.071Z,13.43
2019-05-06T18:37:12.502Z,13.67
2019-05-06T18:39:43.888Z,17.40
2019-05-06T18:42:19.866Z,15.73
2019-05-06T18:44:47.879Z,13.50
2019-05-06T18:47:18.087Z,14.87
2019-05-06T18:49:48.633Z,13.53
2019-05-06T18:52:18.831Z,12.27
2019-05-06T18:54:49.048Z,13.23
2019-05-06T18:57:19.271Z,12.33
2019-05-06T18:59:49.492Z,12.00
2019-05-06T19:02:19.676Z,12.87
2019-05-06T19:04:58.275Z,14.30
2019-05-06T19:07:28.479Z,12.93
2019-05-06T19:10:03.318Z,12.37
2019-05-06T19:12:40.609Z,13.07
2019-05-06T19:15:06.233Z,14.37
2019-05-06T19:17:36.475Z,14.13
2019-05-06T19:20:07.005Z,14.53
2019-05-06T19:22:37.223Z,12.70
2019-05-06T19:25:07.959Z,15.07
2019-05-06T19:27:38.255Z,14.20
2019-05-06T19:30:13.090Z,20.97
2019-05-06T19:32:45.353Z,37.30
2019-05-06T19:35:17.126Z,18.80
2019-05-06T19:37:47.377Z,25.63
2019-05-06T19:40:17.571Z,24.13
2019-05-06T19:42:50.174Z,15.27
2019-05-06T19:45:19.746Z,13.93
2019-05-06T19:47:52.169Z,14.00
2019-05-06T19:50:25.816Z,13.97
2019-05-06T19:52:53.775Z,13.10
2019-05-06T19:55:23.965Z,14.03
2019-05-06T19:57:54.152Z,13.90
2019-05-06T20:00:24.453Z,15.30
2019-05-06T20:02:54.594Z,13.60
2019-05-06T20:05:34.024Z,14.30
2019-05-06T20:08:19.811Z,14.80
2019-05-06T20:11:18.177Z,14.80
2019-05-06T20:13:48.387Z,17.13
2019-05-06T20:16:24.480Z,15.40
2019-05-06T20:18:54.979Z,15.93
2019-05-06T20:21:25.327Z,16.70
2019-05-06T20:23:55.576Z,18.70
2019-05-06T20:26:25.906Z,16.10
2019-05-06T20:28:56.111Z,17.17
2019-05-06T20:31:26.291Z,16.40
2019-05-06T20:33:56.475Z,15.57
2019-05-06T20:36:26.671Z,16.90
2019-05-06T20:38:56.963Z,17.57
2019-05-06T20:41:27.242Z,15.57
2019-05-06T20:43:57.409Z,17.27
2019-05-06T20:46:27.591Z,18.73
2019-05-06T20:48:57.756Z,16.37
2019-05-06T20:51:28.061Z,17.53
2019-05-06T20:53:58.251Z,17.93
2019-05-06T20:56:29.554Z,18.53
2019-05-06T20:58:59.700Z,17.80
2019-05-06T21:01:32.803Z,18.93
2019-05-06T21:04:04.276Z,16.90
2019-05-06T21:06:34.484Z,15.70
2019-05-06T21:09:07.527Z,16.40
2019-05-06T21:11:38.866Z,19.07
2019-05-06T21:14:09.063Z,16.77
2019-05-06T21:16:39.246Z,17.27
2019-05-06T21:19:09.428Z,17.30
2019-05-06T21:21:39.766Z,16.73
2019-05-06T21:24:09.916Z,17.00
2019-05-06T21:26:42.321Z,16.23
2019-05-06T21:29:12.769Z,16.30
2019-05-06T21:31:43.104Z,17.10
2019-05-06T21:34:13.380Z,17.37
2019-05-06T21:36:43.581Z,16.60
2019-05-06T21:39:13.740Z,16.97
2019-05-06T21:41:43.924Z,17.50
2019-05-06T21:44:14.088Z,16.23
2019-05-06T21:46:44.320Z,15.87
2019-05-06T21:49:14.521Z,16.40
2019-05-06T21:51:44.811Z,16.43
2019-05-06T21:54:15.100Z,14.87
2019-05-06T21:56:45.263Z,16.90
2019-05-06T21:59:15.445Z,16.23
2019-05-06T22:01:45.597Z,16.50
2019-05-06T22:04:16.111Z,15.80
2019-05-06T22:06:46.310Z,16.93
2019-05-06T22:09:16.521Z,19.60
2019-05-06T22:11:46.685Z,17.70
2019-05-06T22:14:16.868Z,16.60
2019-05-06T22:16:47.028Z,16.10
2019-05-06T22:19:17.219Z,16.30
2019-05-06T22:22:06.336Z,15.60
2019-05-06T22:24:47.665Z,15.40
2019-05-06T22:27:18.491Z,16.07
2019-05-06T22:29:48.639Z,14.60
2019-05-06T22:32:18.828Z,15.80
2019-05-06T22:34:48.988Z,17.33
2019-05-06T22:37:19.180Z,15.90
2019-05-06T22:39:49.327Z,15.73
2019-05-06T22:42:19.491Z,14.33
2019-05-06T22:44:49.643Z,15.27
2019-05-06T22:47:22.969Z,15.00
2019-05-06T22:49:54.392Z,15.20
2019-05-06T22:52:24.719Z,16.27
2019-05-06T22:54:54.871Z,16.20
2019-05-06T22:57:25.520Z,16.00
2019-05-06T22:59:55.737Z,16.13
2019-05-06T23:02:32.205Z,16.67
2019-05-06T23:05:04.420Z,15.50
2019-05-06T23:07:34.480Z,15.33
2019-05-06T23:10:05.619Z,16.83
2019-05-06T23:12:35.823Z,16.30
2019-05-06T23:15:07.170Z,17.00
2019-05-06T23:17:37.335Z,16.60
2019-05-06T23:20:07.927Z,17.50
2019-05-06T23:22:39.183Z,16.47
2019-05-06T23:25:12.585Z,16.90
2019-05-06T23:27:44.134Z,16.90
2019-05-06T23:30:14.519Z,16.73
2019-05-06T23:32:44.682Z,16.17
2019-05-06T23:35:14.848Z,16.20
2019-05-06T23:38:22.952Z,16.43
2019-05-06T23:41:28.983Z,18.00
2019-05-06T23:44:45.041Z,17.50
2019-05-06T23:47:44.729Z,16.67
2019-05-06T23:50:50.912Z,16.50
2019-05-06T23:53:57.324Z,17.17
2019-05-06T23:56:43.723Z,17.07
2019-05-06T23:59:15.819Z,16.60
